createdAt,value
2022-10-13T00:04:30.843Z,10.4
2022-10-13T00:06:36.693Z,10.3
2022-10-13T00:08:42.587Z,10.4
2022-10-13T00:10:48.434Z,10.4
2022-10-13T00:12:57.284Z,10.4
2022-10-13T00:15:03.173Z,10.4
2022-10-13T00:17:09.010Z,10.5
2022-10-13T00:19:15.154Z,10.4
2022-10-13T00:21:20.735Z,10.5
2022-10-13T00:23:26.506Z,10.5
2022-10-13T00:25:32.353Z,10.5
2022-10-13T00:27:41.292Z,10.5
2022-10-13T00:29:47.188Z,10.6
2022-10-13T00:31:53.036Z,10.5
2022-10-13T00:36:04.657Z,10.6
2022-10-13T00:38:10.510Z,10.6
2022-10-13T00:40:16.390Z,10.6
2022-10-13T00:42:25.336Z,10.6
2022-10-13T00:44:31.199Z,10.5
2022-10-13T00:46:37.126Z,10.5
2022-10-13T00:49:08.492Z,10.5
2022-10-13T00:53:20.232Z,10.5
2022-10-13T00:57:34.929Z,10.6
2022-10-13T00:59:40.788Z,10.6
2022-10-13T01:01:46.675Z,10.6
2022-10-13T01:03:52.535Z,10.7
2022-10-13T01:05:58.396Z,10.7
2022-10-13T01:08:04.279Z,10.7
2022-10-13T01:10:13.225Z,10.8
2022-10-13T01:12:19.439Z,10.8
2022-10-13T01:14:24.937Z,10.9
2022-10-13T01:16:30.826Z,11
2022-10-13T01:18:36.664Z,11.1
2022-10-13T01:20:42.521Z,11.1
2022-10-13T01:22:48.292Z,11.2
2022-10-13T01:24:57.224Z,11.2
2022-10-13T01:27:03.087Z,11.2
2022-10-13T01:29:08.981Z,11.3
2022-10-13T01:31:14.832Z,11.3
2022-10-13T01:33:20.723Z,11.4
2022-10-13T01:35:26.604Z,11.4
2022-10-13T01:37:32.486Z,11.5
2022-10-13T01:39:41.300Z,11.6
2022-10-13T01:41:47.161Z,11.6
2022-10-13T01:43:52.926Z,11.6
2022-10-13T01:47:03.192Z,11.6
2022-10-13T01:49:08.936Z,11.6
2022-10-13T01:51:14.799Z,11.7
2022-10-13T01:53:23.554Z,11.8
2022-10-13T01:55:29.433Z,11.8
2022-10-13T01:57:35.192Z,11.8
2022-10-13T02:01:46.847Z,11.9
2022-10-13T02:03:52.619Z,11.9
2022-10-13T02:05:58.386Z,11.9
2022-10-13T02:08:07.118Z,12
2022-10-13T02:10:12.887Z,11.9
2022-10-13T02:12:19.035Z,12
2022-10-13T02:14:24.543Z,12.1
2022-10-13T02:16:30.322Z,12.1
2022-10-13T02:18:36.093Z,12.2
2022-10-13T02:20:41.880Z,12.2
2022-10-13T02:22:50.659Z,12.2
2022-10-13T02:24:56.397Z,12.2
2022-10-13T02:27:02.177Z,12.2
2022-10-13T02:37:34.062Z,12.3
2022-10-13T02:39:39.848Z,12.3
2022-10-13T02:41:45.635Z,12.3
2022-10-13T02:42:50.017Z,12.3
2022-10-13T02:44:55.810Z,12.3
2022-10-13T02:47:01.597Z,12.4
2022-10-13T02:49:07.384Z,12.4
2022-10-13T02:51:16.125Z,12.4
2022-10-13T02:53:23.536Z,12.4
2022-10-13T02:55:29.257Z,12.4
2022-10-13T02:57:35.065Z,12.4
2022-10-13T03:01:46.642Z,12.3
2022-10-13T03:03:52.387Z,12.3
2022-10-13T03:08:06.966Z,12.3
2022-10-13T03:10:12.747Z,12.3
2022-10-13T03:12:18.932Z,12.4
2022-10-13T03:14:24.340Z,12.4
2022-10-13T03:16:30.106Z,12.4
2022-10-13T03:18:35.889Z,12.4
2022-10-13T03:20:44.645Z,12.4
2022-10-13T03:22:50.431Z,12.4
2022-10-13T03:24:56.233Z,12.4
2022-10-13T03:27:02.002Z,12.4
2022-10-13T03:29:07.793Z,12.4
2022-10-13T03:31:13.623Z,12.5
2022-10-13T03:33:19.378Z,12.4
2022-10-13T03:35:28.120Z,12.4
2022-10-13T03:37:33.938Z,12.5
2022-10-13T03:39:39.699Z,12.5
2022-10-13T03:42:49.894Z,12.5
2022-10-13T03:44:56.484Z,12.5
2022-10-13T03:47:01.469Z,12.5
2022-10-13T03:49:10.231Z,12.5
2022-10-13T03:51:16.030Z,12.5
2022-10-13T03:53:21.807Z,12.5
2022-10-13T03:55:27.609Z,12.5
2022-10-13T03:59:39.166Z,12.5
2022-10-13T04:01:44.991Z,12.5
2022-10-13T04:05:59.536Z,12.5
2022-10-13T04:08:05.327Z,12.5
2022-10-13T04:10:11.620Z,12.5
2022-10-13T04:12:20.681Z,12.5
2022-10-13T04:14:22.735Z,12.5
2022-10-13T04:16:28.526Z,12.5
2022-10-13T04:18:41.065Z,12.5
2022-10-13T04:20:43.074Z,12.5
2022-10-13T04:22:48.870Z,12.6
2022-10-13T04:24:54.643Z,12.5
2022-10-13T04:27:00.445Z,12.5
2022-10-13T04:29:06.223Z,12.5
2022-10-13T04:31:12.023Z,12.6
2022-10-13T04:33:20.784Z,12.6
2022-10-13T04:35:26.586Z,12.5
2022-10-13T04:37:32.374Z,12.5
2022-10-13T04:44:10.006Z,12.5
2022-10-13T04:46:18.779Z,12.5
2022-10-13T04:48:24.561Z,12.5
2022-10-13T04:52:36.147Z,12.5
2022-10-13T04:54:41.919Z,12.5
2022-10-13T04:56:47.718Z,12.5
2022-10-13T04:58:53.527Z,12.5
2022-10-13T05:01:02.351Z,12.5
2022-10-13T05:03:08.061Z,12.5
2022-10-13T05:05:13.847Z,12.5
2022-10-13T05:07:19.634Z,12.4
2022-10-13T05:09:25.432Z,12.4
2022-10-13T05:11:31.208Z,12.4
2022-10-13T05:13:37.002Z,12.4
2022-10-13T05:15:45.770Z,12.4
2022-10-13T05:17:51.550Z,12.4
2022-10-13T05:19:57.347Z,12.4
2022-10-13T05:22:03.129Z,12.4
2022-10-13T05:24:08.932Z,12.4
2022-10-13T05:26:14.710Z,12.4
2022-10-13T05:34:40.835Z,12.5
2022-10-13T05:37:51.002Z,12.4
2022-10-13T05:39:56.784Z,12.4
2022-10-13T05:42:02.577Z,12.3
2022-10-13T05:44:11.338Z,12.4
2022-10-13T05:46:17.124Z,12.4
2022-10-13T05:48:22.920Z,12.5
2022-10-13T05:50:28.735Z,12.5
2022-10-13T05:52:34.499Z,12.5
2022-10-13T05:54:40.289Z,12.6
2022-10-13T05:58:54.854Z,12.8
2022-10-13T06:01:00.636Z,12.8
2022-10-13T06:03:06.430Z,12.8
2022-10-13T06:05:12.225Z,12.7
2022-10-13T06:07:18.000Z,12.8
2022-10-13T06:09:23.793Z,12.7
2022-10-13T06:11:29.603Z,12.7
2022-10-13T06:13:38.601Z,12.7
2022-10-13T06:15:44.162Z,12.7
2022-10-13T06:17:49.959Z,12.7
2022-10-13T06:19:55.750Z,12.8
2022-10-13T06:22:03.712Z,12.7
2022-10-13T06:24:07.303Z,12.8
2022-10-13T06:30:27.660Z,12.7
2022-10-13T06:32:33.448Z,12.8
2022-10-13T06:33:37.825Z,12.8
2022-10-13T06:35:43.626Z,12.8
2022-10-13T06:37:49.417Z,12.8
2022-10-13T06:39:55.183Z,12.8
2022-10-13T06:42:03.955Z,12.8
2022-10-13T06:44:09.743Z,12.8
2022-10-13T06:48:21.341Z,12.9
2022-10-13T06:50:27.113Z,12.9
2022-10-13T06:52:32.898Z,12.9
2022-10-13T06:54:38.875Z,12.9
2022-10-13T06:56:47.482Z,12.9
2022-10-13T07:00:59.111Z,13
2022-10-13T07:03:04.845Z,13
2022-10-13T07:07:16.421Z,13
2022-10-13T07:13:37.657Z,13
2022-10-13T07:17:48.347Z,13
2022-10-13T07:26:14.511Z,13.1
2022-10-13T07:28:20.369Z,13.2
2022-10-13T07:30:26.113Z,13.2
2022-10-13T07:31:30.477Z,13.2
2022-10-13T07:33:36.319Z,13.3
2022-10-13T07:35:42.091Z,13.3
2022-10-13T07:37:47.894Z,13.4
2022-10-13T07:39:56.675Z,13.3
2022-10-13T07:42:02.479Z,13.4
2022-10-13T07:44:08.275Z,13.4
2022-10-13T07:46:14.258Z,13.4
2022-10-13T07:48:19.946Z,13.4
2022-10-13T07:50:25.677Z,13.4
2022-10-13T07:52:31.459Z,13.4
2022-10-13T07:54:40.232Z,13.4
2022-10-13T07:56:46.036Z,13.4
2022-10-13T07:58:51.824Z,13.4
2022-10-13T08:00:57.629Z,13.4
2022-10-13T08:03:03.470Z,13.4
2022-10-13T08:05:09.248Z,13.4
2022-10-13T08:07:15.040Z,13.4
2022-10-13T08:09:23.806Z,13.3
2022-10-13T08:11:29.591Z,13.4
2022-10-13T08:13:35.383Z,13.4
2022-10-13T08:15:41.193Z,13.4
2022-10-13T08:17:47.029Z,13.4
2022-10-13T08:19:52.793Z,13.5
2022-10-13T08:21:59.865Z,13.5
2022-10-13T08:24:07.366Z,13.5
2022-10-13T08:28:19.029Z,13.5
2022-10-13T08:30:50.477Z,13.5
2022-10-13T08:32:56.076Z,13.5
2022-10-13T08:39:16.463Z,13.4
2022-10-13T08:41:22.253Z,13.4
2022-10-13T08:43:28.043Z,13.4
2022-10-13T08:45:41.201Z,13.5
2022-10-13T08:47:39.617Z,13.5
2022-10-13T08:54:00.020Z,13.6
2022-10-13T08:56:07.434Z,13.5
2022-10-13T08:58:13.147Z,13.5
2022-10-13T09:00:18.945Z,13.6
2022-10-13T09:02:24.739Z,13.6
2022-10-13T09:06:39.300Z,13.7
2022-10-13T09:10:50.893Z,13.6
2022-10-13T09:12:56.691Z,13.7
2022-10-13T09:15:02.495Z,13.7
2022-10-13T09:17:08.379Z,13.7
2022-10-13T09:19:14.096Z,13.7
2022-10-13T09:21:22.875Z,13.7
2022-10-13T09:23:28.661Z,13.8
2022-10-13T09:25:34.447Z,13.8
2022-10-13T09:26:38.827Z,13.9
2022-10-13T09:28:44.648Z,14
2022-10-13T09:30:50.429Z,14.1
2022-10-13T09:32:56.292Z,14.2
2022-10-13T09:37:10.774Z,14.3
2022-10-13T09:45:34.001Z,15
2022-10-13T09:51:54.393Z,15.1
2022-10-13T09:56:06.010Z,15.5
2022-10-13T09:58:11.838Z,15.5
2022-10-13T10:02:25.118Z,15.5
2022-10-13T10:04:32.365Z,15.5
2022-10-13T10:06:38.002Z,15.5
2022-10-13T10:09:02.009Z,15.5
2022-10-13T10:10:49.616Z,15.4
2022-10-13T10:12:55.456Z,15.4
2022-10-13T10:15:01.245Z,15.3
2022-10-13T10:17:07.069Z,15.3
2022-10-13T10:19:15.853Z,15.2
2022-10-13T10:21:21.678Z,15.2
2022-10-13T10:23:27.470Z,15.2
2022-10-13T10:24:31.879Z,15.1
2022-10-13T10:26:37.672Z,15.1
2022-10-13T10:28:43.539Z,15.1
2022-10-13T10:30:49.273Z,15.1
2022-10-13T10:32:58.055Z,15.2
2022-10-13T10:35:04.039Z,15.2
2022-10-13T10:37:09.661Z,15.4
2022-10-13T10:39:15.479Z,15.3
2022-10-13T10:41:21.266Z,15.4
2022-10-13T10:43:27.049Z,15.4
2022-10-13T10:45:32.873Z,15.4
2022-10-13T10:47:41.641Z,15.4
2022-10-13T10:56:04.880Z,15.6
2022-10-13T10:58:10.697Z,15.7
2022-10-13T11:00:16.612Z,15.8
2022-10-13T11:02:25.298Z,15.9
2022-10-13T11:04:31.126Z,15.9
2022-10-13T11:06:36.928Z,15.9
2022-10-13T11:08:42.738Z,16
2022-10-13T11:10:48.577Z,16.1
2022-10-13T11:12:54.367Z,16
2022-10-13T11:19:14.765Z,16.3
2022-10-13T11:21:20.588Z,16.3
2022-10-13T11:22:25.139Z,16.4
2022-10-13T11:24:30.812Z,16.4
2022-10-13T11:26:36.635Z,16.5
2022-10-13T11:28:42.468Z,16.5
2022-10-13T11:30:51.237Z,16.5
2022-10-13T11:32:57.028Z,16.5
2022-10-13T11:35:02.849Z,16.6
2022-10-13T11:37:08.647Z,16.5
2022-10-13T11:39:14.460Z,16.5
2022-10-13T11:41:20.263Z,16.5
2022-10-13T11:43:26.074Z,16.5
2022-10-13T11:45:34.851Z,16.6
2022-10-13T11:51:52.304Z,16.4
2022-10-13T11:53:58.122Z,16.4
2022-10-13T11:56:03.944Z,16.3
2022-10-13T11:58:09.720Z,16.2
2022-10-13T12:00:18.498Z,16
2022-10-13T12:04:30.123Z,15.8
2022-10-13T12:06:35.929Z,15.8
2022-10-13T12:08:41.746Z,15.7
2022-10-13T12:12:53.399Z,15.7
2022-10-13T12:15:05.930Z,15.6
2022-10-13T12:19:13.795Z,15.5
2022-10-13T12:21:45.090Z,15.5
2022-10-13T12:23:50.896Z,15.4
2022-10-13T12:25:56.712Z,15.4
2022-10-13T12:28:05.483Z,15.5
2022-10-13T12:30:11.268Z,15.5
2022-10-13T12:32:17.090Z,15.5
2022-10-13T12:34:22.891Z,15.5
2022-10-13T12:36:30.429Z,15.5
2022-10-13T12:38:34.503Z,15.3
2022-10-13T12:40:40.314Z,15.4
2022-10-13T12:42:49.165Z,15.2
2022-10-13T12:44:54.919Z,15.2
2022-10-13T12:47:00.731Z,15.3
2022-10-13T12:49:06.664Z,15.3
2022-10-13T12:51:12.338Z,15.2
2022-10-13T12:53:18.168Z,15.2
2022-10-13T12:55:23.993Z,15.3
2022-10-13T12:57:32.739Z,15.2
2022-10-13T12:59:38.575Z,15.1
2022-10-13T13:01:44.402Z,15
2022-10-13T13:03:50.190Z,14.9
2022-10-13T13:05:59.913Z,14.8
2022-10-13T13:08:01.814Z,14.8
2022-10-13T13:10:07.631Z,14.8
2022-10-13T13:12:16.409Z,15
2022-10-13T13:14:22.181Z,15
2022-10-13T13:19:38.206Z,15
2022-10-13T13:21:44.051Z,15
2022-10-13T13:23:53.071Z,14.9
2022-10-13T13:25:58.600Z,14.7
2022-10-13T13:30:10.215Z,14.5
2022-10-13T13:32:16.850Z,14.5
2022-10-13T13:34:24.425Z,14.5
2022-10-13T13:36:27.680Z,14.4
2022-10-13T13:38:33.457Z,14.4
2022-10-13T13:40:42.233Z,14.4
2022-10-13T13:44:53.859Z,14.3
2022-10-13T13:46:59.642Z,14.2
2022-10-13T13:49:05.630Z,14.3
2022-10-13T13:51:11.257Z,14.2
2022-10-13T13:53:17.086Z,14.1
2022-10-13T13:55:25.837Z,14.1
2022-10-13T13:57:31.654Z,14.1
2022-10-13T13:59:37.589Z,14
2022-10-13T14:03:49.024Z,13.9
2022-10-13T14:05:54.816Z,14
2022-10-13T14:08:00.656Z,14
2022-10-13T14:10:09.418Z,13.9
2022-10-13T14:12:15.216Z,13.9
2022-10-13T14:14:21.025Z,14
2022-10-13T14:15:28.733Z,14.1
2022-10-13T14:17:31.212Z,14.1
2022-10-13T14:21:42.797Z,14.2
2022-10-13T14:23:51.567Z,14.2
2022-10-13T14:25:57.365Z,14.2
2022-10-13T14:28:03.182Z,14.3
2022-10-13T14:30:08.987Z,14.4
2022-10-13T14:34:20.581Z,14.4
2022-10-13T14:40:40.935Z,14.4
2022-10-13T14:42:46.747Z,14.3
2022-10-13T14:44:52.564Z,14.3
2022-10-13T14:46:58.360Z,14.3
2022-10-13T14:51:09.954Z,14.4
2022-10-13T14:53:18.723Z,14.4
2022-10-13T14:55:24.539Z,14.4
2022-10-13T14:57:30.355Z,14.4
2022-10-13T14:59:37.752Z,14.6
2022-10-13T15:01:43.644Z,14.7
2022-10-13T15:03:49.348Z,14.8
2022-10-13T15:05:55.137Z,14.9
2022-10-13T15:08:03.882Z,15.1
2022-10-13T15:10:09.700Z,15.1
2022-10-13T15:12:15.531Z,15.1
2022-10-13T15:13:19.910Z,15.2
2022-10-13T15:15:25.705Z,15.1
2022-10-13T15:17:31.554Z,15
2022-10-13T15:19:37.322Z,15
2022-10-13T15:21:46.093Z,14.9
2022-10-13T15:23:51.901Z,14.9
2022-10-13T15:25:57.708Z,14.9
2022-10-13T15:28:03.518Z,14.8
2022-10-13T15:30:09.336Z,14.7
2022-10-13T15:32:15.117Z,14.7
2022-10-13T15:34:20.933Z,14.6
2022-10-13T15:36:29.707Z,14.6
2022-10-13T15:38:35.506Z,14.6
2022-10-13T15:40:41.314Z,14.7
2022-10-13T15:45:10.482Z,14.7
2022-10-13T15:51:13.326Z,14.4
2022-10-13T15:53:19.129Z,14.4
2022-10-13T15:55:24.909Z,14.4
2022-10-13T15:57:30.710Z,14.4
2022-10-13T15:59:36.504Z,14.4
2022-10-13T16:01:42.325Z,14.4
2022-10-13T16:03:48.133Z,14.3
2022-10-13T16:05:56.903Z,14.3
2022-10-13T16:08:02.704Z,14.3
2022-10-13T16:10:08.498Z,14.3
2022-10-13T16:12:39.910Z,14.2
2022-10-13T16:16:51.420Z,14.2
2022-10-13T16:19:00.231Z,14.2
2022-10-13T16:21:06.030Z,14.2
2022-10-13T16:23:11.821Z,14.2
2022-10-13T16:25:17.644Z,14.2
2022-10-13T16:27:23.437Z,14.2
2022-10-13T16:29:29.369Z,14.1
2022-10-13T16:31:35.057Z,14
2022-10-13T16:33:43.834Z,14.1
2022-10-13T16:35:49.602Z,14
2022-10-13T16:37:55.407Z,14
2022-10-13T16:40:01.249Z,14
2022-10-13T16:42:07.010Z,14
2022-10-13T16:44:12.826Z,14
2022-10-13T16:46:18.625Z,13.9
2022-10-13T16:48:27.395Z,13.9
2022-10-13T16:50:33.189Z,13.9
2022-10-13T16:52:38.987Z,14
2022-10-13T16:54:44.764Z,13.9
2022-10-13T16:56:50.561Z,13.9
2022-10-13T16:58:56.340Z,13.9
2022-10-13T17:01:02.396Z,13.9
2022-10-13T17:07:22.946Z,13.8
2022-10-13T17:08:26.885Z,13.7
2022-10-13T17:10:32.682Z,13.7
2022-10-13T17:12:38.469Z,13.7
2022-10-13T17:14:44.270Z,13.8
2022-10-13T17:16:57.422Z,13.8
2022-10-13T17:18:58.811Z,13.8
2022-10-13T17:23:10.422Z,13.9
2022-10-13T17:27:22.474Z,13.8
2022-10-13T17:29:27.780Z,13.8
2022-10-13T17:31:36.533Z,13.8
2022-10-13T17:33:42.346Z,13.8
2022-10-13T17:35:48.158Z,13.8
2022-10-13T17:37:53.947Z,13.7
2022-10-13T17:39:59.759Z,13.8
2022-10-13T17:42:05.544Z,13.8
2022-10-13T17:44:11.367Z,13.8
2022-10-13T17:46:35.673Z,13.7
2022-10-13T17:48:25.962Z,13.7
2022-10-13T17:50:31.758Z,13.7
2022-10-13T17:56:49.142Z,13.6
2022-10-13T18:01:13.230Z,13.6
2022-10-13T18:03:09.537Z,13.6
2022-10-13T18:05:15.343Z,13.5
2022-10-13T18:08:25.533Z,13.5
2022-10-13T18:10:50.857Z,13.5
2022-10-13T18:21:03.317Z,13.5
2022-10-13T18:23:09.105Z,13.5
2022-10-13T18:25:14.918Z,13.5
2022-10-13T18:27:20.829Z,13.5
2022-10-13T18:29:29.505Z,13.5
2022-10-13T18:31:35.301Z,13.5
2022-10-13T18:33:41.074Z,13.6
2022-10-13T18:35:46.883Z,13.6
2022-10-13T18:37:52.676Z,13.6
2022-10-13T18:39:58.477Z,13.6
2022-10-13T18:42:04.255Z,13.6
2022-10-13T18:44:13.026Z,13.6
2022-10-13T18:46:18.818Z,13.6
2022-10-13T18:48:24.631Z,13.6
2022-10-13T18:50:30.433Z,13.6
2022-10-13T18:52:36.225Z,13.6
2022-10-13T18:54:42.012Z,13.6
2022-10-13T18:56:47.805Z,13.6
2022-10-13T18:58:59.491Z,13.6
2022-10-13T19:01:02.478Z,13.6
2022-10-13T19:03:08.153Z,13.6
2022-10-13T19:04:12.560Z,13.6
2022-10-13T19:06:18.361Z,13.6
2022-10-13T19:08:24.136Z,13.6
2022-10-13T19:10:29.941Z,13.7
2022-10-13T19:12:38.701Z,13.7
2022-10-13T19:14:44.487Z,13.6
2022-10-13T19:16:50.329Z,13.7
2022-10-13T19:18:56.141Z,13.7
2022-10-13T19:21:01.978Z,13.7
2022-10-13T19:23:07.763Z,13.7
2022-10-13T19:25:13.549Z,13.7
2022-10-13T19:27:22.798Z,13.7
2022-10-13T19:29:28.121Z,13.7
2022-10-13T19:31:33.976Z,13.7
2022-10-13T19:33:44.338Z,13.7
2022-10-13T19:35:45.502Z,13.7
2022-10-13T19:37:51.312Z,13.7
2022-10-13T19:39:57.089Z,13.7
2022-10-13T19:44:11.669Z,13.7
2022-10-13T19:46:17.448Z,13.8
2022-10-13T19:48:23.276Z,13.7
2022-10-13T19:50:29.073Z,13.8
2022-10-13T19:52:34.859Z,13.8
2022-10-13T19:54:40.647Z,13.7
2022-10-13T19:56:49.434Z,13.7
2022-10-13T19:58:55.240Z,13.7
2022-10-13T20:01:01.093Z,13.8
2022-10-13T20:09:52.702Z,13.6
2022-10-13T20:11:58.492Z,13.7
2022-10-13T20:14:04.306Z,13.7
2022-10-13T20:16:10.095Z,13.7
2022-10-13T20:18:15.889Z,13.7
2022-10-13T20:20:22.607Z,13.6
2022-10-13T20:22:27.461Z,13.6
2022-10-13T20:26:42.019Z,13.5
2022-10-13T20:28:47.859Z,13.6
2022-10-13T20:30:53.603Z,13.6
2022-10-13T20:32:59.413Z,13.5
2022-10-13T20:35:05.222Z,13.5
2022-10-13T20:37:11.010Z,13.5
2022-10-13T20:39:19.756Z,13.5
2022-10-13T20:41:25.565Z,13.5
2022-10-13T20:43:31.339Z,13.5
2022-10-13T20:45:37.154Z,13.4
2022-10-13T20:47:42.951Z,13.4
2022-10-13T20:49:48.738Z,13.4
2022-10-13T20:51:54.536Z,13.4
2022-10-13T20:54:03.311Z,13.4
2022-10-13T20:56:09.103Z,13.3
2022-10-13T20:58:14.884Z,13.3
2022-10-13T20:59:20.297Z,13.3
2022-10-13T21:01:26.684Z,13.3
2022-10-13T21:03:32.436Z,13.2
2022-10-13T21:05:38.231Z,13.2
2022-10-13T21:07:46.986Z,13.1
2022-10-13T21:11:58.556Z,13.2
2022-10-13T21:14:04.348Z,13.2
2022-10-13T21:16:10.181Z,13.2
2022-10-13T21:18:15.948Z,13.2
2022-10-13T21:20:21.735Z,13.1
2022-10-13T21:22:30.494Z,13.1
2022-10-13T21:24:36.302Z,13
2022-10-13T21:26:42.078Z,13
2022-10-13T21:28:47.926Z,13
2022-10-13T21:30:53.659Z,13
2022-10-13T21:32:59.441Z,12.9
2022-10-13T21:35:05.239Z,13
2022-10-13T21:37:14.032Z,12.9
2022-10-13T21:39:19.807Z,12.9
2022-10-13T21:43:31.395Z,12.8
2022-10-13T21:47:42.979Z,12.7
2022-10-13T21:49:48.776Z,12.7
2022-10-13T21:51:57.548Z,12.6
2022-10-13T21:54:03.332Z,12.6
2022-10-13T21:56:09.136Z,12.5
2022-10-13T21:57:13.511Z,12.5
2022-10-13T21:59:19.304Z,12.5
2022-10-13T22:01:25.086Z,12.4
2022-10-13T22:03:30.885Z,12.4
2022-10-13T22:05:39.656Z,12.4
2022-10-13T22:07:45.419Z,12.4
2022-10-13T22:09:51.212Z,12.3
2022-10-13T22:14:02.793Z,12.3
2022-10-13T22:16:08.562Z,12.3
2022-10-13T22:20:23.103Z,12.2
2022-10-13T22:22:31.057Z,12.2
2022-10-13T22:24:34.657Z,12.2
2022-10-13T22:26:40.417Z,12.2
2022-10-13T22:28:46.251Z,12.2
2022-10-13T22:30:52.003Z,12.1
2022-10-13T22:43:29.636Z,12
2022-10-13T22:45:35.416Z,12
2022-10-13T22:47:41.174Z,12
2022-10-13T22:49:49.965Z,12
2022-10-13T22:51:55.715Z,12
2022-10-13T22:54:01.491Z,12
2022-10-13T22:55:05.883Z,11.9
2022-10-13T22:57:11.650Z,11.9
2022-10-13T22:59:17.421Z,11.9
2022-10-13T23:01:23.213Z,11.9
2022-10-13T23:03:31.984Z,11.8
2022-10-13T23:05:37.742Z,11.8
2022-10-13T23:07:43.523Z,11.8
2022-10-13T23:09:49.295Z,11.8
2022-10-13T23:11:59.590Z,11.8
2022-10-13T23:14:00.839Z,11.7
2022-10-13T23:16:06.607Z,11.7
2022-10-13T23:18:15.341Z,11.7
2022-10-13T23:20:21.121Z,11.6
2022-10-13T23:22:26.875Z,11.7
2022-10-13T23:24:32.652Z,11.7
2022-10-13T23:26:38.409Z,11.7
2022-10-13T23:28:44.361Z,11.7
2022-10-13T23:30:49.977Z,11.7
2022-10-13T23:32:58.695Z,11.7
2022-10-13T23:35:04.472Z,11.7
2022-10-13T23:37:10.249Z,11.8
2022-10-13T23:39:16.008Z,11.7
2022-10-13T23:41:21.785Z,11.6
2022-10-13T23:45:33.353Z,11.6
2022-10-13T23:47:42.098Z,11.5
2022-10-13T23:49:47.885Z,11.5
2022-10-13T23:51:53.633Z,11.6
2022-10-13T23:54:24.955Z,11.5
2022-10-13T23:56:30.756Z,11.5
2022-10-13T23:58:36.513Z,11.4
